createdAt,value
2019-03-06T00:02:26.162Z,98.60
2019-03-06T00:04:56.565Z,98.70
2019-03-06T00:07:27.026Z,97.80
2019-03-06T00:09:57.161Z,97.40
2019-03-06T00:12:27.104Z,97.40
2019-03-06T00:14:57.403Z,98.20
2019-03-06T00:17:27.408Z,97.60
2019-03-06T00:19:57.792Z,97.60
2019-03-06T00:22:28.535Z,98.70
2019-03-06T00:24:58.815Z,98.60
2019-03-06T00:27:28.919Z,98.20
2019-03-06T00:29:59.351Z,97.80
2019-03-06T00:32:29.368Z,97.50
2019-03-06T00:35:01.865Z,97.60
2019-03-06T00:37:31.877Z,97.90
2019-03-06T00:40:20.845Z,98.40
2019-03-06T00:42:51.559Z,98.50
2019-03-06T00:45:21.324Z,96.40
2019-03-06T00:47:50.984Z,96.40
2019-03-06T00:50:21.058Z,95.70
2019-03-06T00:52:51.719Z,95.70
2019-03-06T00:55:22.195Z,95.80
2019-03-06T00:57:52.581Z,96.10
2019-03-06T01:00:23.948Z,96.40
2019-03-06T01:02:53.558Z,96.90
2019-03-06T01:05:24.473Z,97.20
2019-03-06T01:07:54.807Z,97.50
2019-03-06T01:10:25.125Z,98.10
2019-03-06T01:12:55.379Z,98.80
2019-03-06T01:15:25.130Z,99.70
2019-03-06T01:17:55.272Z,99.90
2019-03-06T01:20:25.703Z,99.90
2019-03-06T01:22:56.058Z,99.90
2019-03-06T01:25:26.620Z,98.80
2019-03-06T01:27:56.666Z,97.00
2019-03-06T01:30:26.360Z,95.80
2019-03-06T01:33:02.322Z,95.00
2019-03-06T01:35:57.537Z,93.80
2019-03-06T01:38:47.327Z,94.10
2019-03-06T01:41:26.434Z,93.90
2019-03-06T01:44:00.787Z,94.00
2019-03-06T01:46:30.859Z,93.70
2019-03-06T01:49:01.545Z,93.40
2019-03-06T01:51:32.175Z,93.60
2019-03-06T01:54:02.639Z,93.30
2019-03-06T01:56:32.957Z,93.10
2019-03-06T01:59:03.223Z,93.30
2019-03-06T02:01:33.956Z,93.70
2019-03-06T02:04:04.655Z,93.90
2019-03-06T02:06:35.781Z,93.40
2019-03-06T02:09:09.257Z,93.20
2019-03-06T02:11:39.059Z,92.80
2019-03-06T02:14:08.653Z,93.00
2019-03-06T02:16:38.614Z,93.00
2019-03-06T02:19:09.273Z,93.80
2019-03-06T02:21:39.304Z,93.90
2019-03-06T02:24:10.006Z,93.70
2019-03-06T02:26:40.179Z,93.80
2019-03-06T02:29:10.594Z,93.70
2019-03-06T02:31:40.602Z,93.60
2019-03-06T02:34:10.936Z,93.40
2019-03-06T02:36:41.056Z,92.80
2019-03-06T02:39:11.302Z,92.60
2019-03-06T02:41:42.000Z,92.20
2019-03-06T02:44:12.495Z,92.20
2019-03-06T02:46:42.422Z,92.30
2019-03-06T02:49:12.743Z,92.30
2019-03-06T02:51:43.260Z,92.20
2019-03-06T02:54:13.312Z,92.10
2019-03-06T02:56:43.704Z,92.00
2019-03-06T02:59:32.603Z,91.80
2019-03-06T03:02:16.349Z,91.80
2019-03-06T03:04:55.787Z,92.00
2019-03-06T03:07:26.336Z,91.80
2019-03-06T03:09:56.640Z,91.90
2019-03-06T03:12:27.020Z,91.40
2019-03-06T03:14:57.083Z,91.30
2019-03-06T03:17:26.714Z,91.10
2019-03-06T03:19:56.795Z,91.30
2019-03-06T03:22:27.156Z,90.70
2019-03-06T03:24:57.530Z,90.60
2019-03-06T03:27:27.959Z,90.60
2019-03-06T03:29:58.413Z,90.10
2019-03-06T03:32:28.834Z,89.70
2019-03-06T03:34:58.861Z,89.00
2019-03-06T03:37:47.963Z,89.50
2019-03-06T03:40:18.415Z,89.00
2019-03-06T03:42:48.769Z,89.00
2019-03-06T03:45:19.080Z,89.10
2019-03-06T03:47:49.589Z,88.90
2019-03-06T03:50:20.369Z,88.60
2019-03-06T03:52:50.696Z,88.40
2019-03-06T03:55:21.036Z,87.90
2019-03-06T03:57:51.932Z,87.90
2019-03-06T04:00:22.370Z,87.40
2019-03-06T04:02:52.991Z,87.30
2019-03-06T04:05:22.984Z,87.10
2019-03-06T04:07:53.459Z,87.20
2019-03-06T04:10:24.099Z,87.70
2019-03-06T04:12:54.518Z,87.30
2019-03-06T04:15:24.832Z,87.50
2019-03-06T04:17:54.851Z,86.70
2019-03-06T04:20:25.385Z,86.10
2019-03-06T04:22:55.774Z,86.70
2019-03-06T04:25:25.468Z,86.20
2019-03-06T04:27:55.800Z,86.90
2019-03-06T04:30:25.354Z,86.70
2019-03-06T04:32:55.758Z,85.50
2019-03-06T04:35:26.080Z,84.80
2019-03-06T04:37:56.117Z,84.80
2019-03-06T04:40:26.519Z,84.10
2019-03-06T04:42:57.228Z,84.50
2019-03-06T04:45:27.879Z,83.90
2019-03-06T04:47:57.813Z,83.00
2019-03-06T04:50:31.188Z,83.40
2019-03-06T04:53:01.499Z,83.80
2019-03-06T04:55:31.815Z,83.30
2019-03-06T04:58:02.261Z,83.60
2019-03-06T05:00:32.939Z,83.30
2019-03-06T05:03:02.607Z,82.70
2019-03-06T05:05:32.915Z,82.80
2019-03-06T05:08:03.265Z,82.80
2019-03-06T05:10:33.187Z,82.80
2019-03-06T05:13:03.513Z,82.60
2019-03-06T05:15:33.538Z,82.10
2019-03-06T05:18:31.484Z,81.30
2019-03-06T05:21:01.979Z,81.20
2019-03-06T05:23:32.662Z,81.50
2019-03-06T05:26:03.386Z,81.60
2019-03-06T05:28:33.487Z,82.00
2019-03-06T05:31:03.453Z,82.30
2019-03-06T05:33:33.504Z,82.30
2019-03-06T05:36:47.023Z,82.40
2019-03-06T05:39:17.041Z,82.00
2019-03-06T05:41:47.964Z,81.80
2019-03-06T05:44:18.358Z,81.50
2019-03-06T05:46:48.723Z,82.00
2019-03-06T05:49:19.211Z,82.20
2019-03-06T05:51:49.506Z,81.80
2019-03-06T05:54:19.666Z,81.40
2019-03-06T05:56:50.943Z,81.70
2019-03-06T05:59:20.825Z,82.00
2019-03-06T06:01:51.118Z,82.00
2019-03-06T06:04:22.304Z,82.30
2019-03-06T06:06:52.674Z,82.10
2019-03-06T06:09:22.371Z,82.10
2019-03-06T06:11:52.682Z,81.90
2019-03-06T06:14:23.006Z,82.40
2019-03-06T06:16:55.557Z,81.40
2019-03-06T06:19:25.872Z,80.70
2019-03-06T06:22:21.085Z,81.90
2019-03-06T06:24:51.461Z,81.70
2019-03-06T06:27:21.750Z,80.70
2019-03-06T06:29:52.507Z,80.60
2019-03-06T06:32:22.567Z,79.20
2019-03-06T06:34:53.279Z,78.90
2019-03-06T06:37:23.351Z,77.80
2019-03-06T06:39:53.662Z,77.90
2019-03-06T06:42:24.423Z,77.70
2019-03-06T06:44:54.110Z,75.60
2019-03-06T06:47:24.477Z,75.60
2019-03-06T06:49:54.837Z,73.60
2019-03-06T06:53:26.864Z,72.60
2019-03-06T06:56:20.248Z,71.60
2019-03-06T06:59:04.124Z,71.40
2019-03-06T07:02:35.590Z,72.40
2019-03-06T07:05:31.267Z,71.90
2019-03-06T07:08:23.551Z,72.10
2019-03-06T07:11:22.246Z,72.80
2019-03-06T07:14:10.379Z,72.20
2019-03-06T07:16:57.620Z,72.80
2019-03-06T07:19:35.086Z,72.50
2019-03-06T07:22:13.905Z,72.30
2019-03-06T07:25:02.470Z,72.80
2019-03-06T07:27:50.196Z,72.40
2019-03-06T07:30:42.145Z,73.10
2019-03-06T07:33:31.103Z,72.50
2019-03-06T07:36:20.359Z,72.10
2019-03-06T07:38:54.260Z,71.20
2019-03-06T07:41:52.030Z,72.30
2019-03-06T07:44:34.946Z,72.10
2019-03-06T07:47:20.960Z,71.50
2019-03-06T07:50:15.137Z,71.20
2019-03-06T07:53:18.950Z,70.90
2019-03-06T07:56:14.037Z,72.40
2019-03-06T07:58:57.489Z,70.00
2019-03-06T08:01:29.609Z,70.20
2019-03-06T08:04:03.137Z,70.60
2019-03-06T08:06:33.589Z,70.10
2019-03-06T08:09:04.260Z,70.50
2019-03-06T08:11:51.510Z,69.60
2019-03-06T08:14:59.212Z,69.20
2019-03-06T08:17:46.641Z,69.50
2019-03-06T08:20:38.922Z,68.40
2019-03-06T08:23:20.779Z,68.80
2019-03-06T08:25:51.522Z,69.10
2019-03-06T08:28:21.129Z,68.60
2019-03-06T08:30:54.870Z,68.10
2019-03-06T08:33:25.858Z,68.20
2019-03-06T08:35:56.580Z,68.30
2019-03-06T08:38:26.215Z,68.70
2019-03-06T08:41:03.926Z,68.20
2019-03-06T08:43:28.376Z,69.10
2019-03-06T08:46:23.419Z,69.30
2019-03-06T08:49:03.131Z,69.50
2019-03-06T08:51:48.966Z,68.80
2019-03-06T08:54:33.680Z,68.90
2019-03-06T08:57:14.859Z,68.10
2019-03-06T09:00:01.276Z,68.70
2019-03-06T09:02:47.555Z,68.20
2019-03-06T09:05:39.491Z,66.60
2019-03-06T09:08:31.157Z,67.60
2019-03-06T09:11:10.153Z,66.70
2019-03-06T09:14:14.671Z,65.60
2019-03-06T09:17:09.681Z,65.50
2019-03-06T09:19:48.808Z,65.20
2019-03-06T09:22:43.319Z,65.30
2019-03-06T09:25:27.639Z,64.30
2019-03-06T09:28:18.537Z,63.00
2019-03-06T09:30:56.852Z,63.30
2019-03-06T09:33:35.539Z,62.30
2019-03-06T09:36:36.588Z,62.50
2019-03-06T09:39:23.602Z,61.50
2019-03-06T09:42:12.922Z,61.50
2019-03-06T09:45:00.980Z,61.40
2019-03-06T09:47:38.355Z,60.70
2019-03-06T09:50:27.097Z,60.00
2019-03-06T09:53:15.025Z,60.60
2019-03-06T09:56:03.073Z,59.50
2019-03-06T09:59:04.632Z,59.20
2019-03-06T10:01:39.790Z,59.80
2019-03-06T10:04:29.554Z,58.40
2019-03-06T10:07:30.623Z,58.30
2019-03-06T10:10:12.739Z,57.30
2019-03-06T10:12:49.483Z,57.80
2019-03-06T10:15:47.337Z,56.10
2019-03-06T10:18:30.779Z,56.50
2019-03-06T10:21:01.008Z,56.60
2019-03-06T10:23:31.495Z,55.50
2019-03-06T10:26:01.585Z,54.80
2019-03-06T10:28:31.681Z,55.80
2019-03-06T10:31:02.876Z,53.90
2019-03-06T10:33:32.886Z,54.20
2019-03-06T10:36:03.676Z,52.50
2019-03-06T10:38:34.084Z,54.00
2019-03-06T10:41:04.203Z,54.20
2019-03-06T10:43:34.626Z,53.20
2019-03-06T10:46:05.165Z,52.90
2019-03-06T10:48:35.943Z,53.20
2019-03-06T10:51:05.783Z,53.30
2019-03-06T10:56:08.597Z,53.30
2019-03-06T10:58:38.648Z,52.10
2019-03-06T11:01:09.246Z,52.80
2019-03-06T11:03:43.606Z,52.20
2019-03-06T11:06:14.639Z,53.30
2019-03-06T11:08:44.744Z,51.20
2019-03-06T11:11:16.705Z,50.80
2019-03-06T11:13:46.787Z,50.40
2019-03-06T11:16:18.136Z,51.00
2019-03-06T11:18:47.958Z,50.40
2019-03-06T11:21:18.099Z,50.80
2019-03-06T11:23:48.400Z,50.00
2019-03-06T11:26:19.281Z,49.60
2019-03-06T11:28:50.355Z,50.20
2019-03-06T11:31:20.463Z,50.50
2019-03-06T11:33:50.931Z,48.80
2019-03-06T11:36:21.345Z,49.80
2019-03-06T11:38:51.035Z,49.60
2019-03-06T11:41:21.405Z,49.00
2019-03-06T11:43:51.550Z,48.80
2019-03-06T11:46:21.947Z,50.50
2019-03-06T11:48:51.719Z,49.90
2019-03-06T11:51:21.444Z,48.40
2019-03-06T11:53:51.188Z,47.60
2019-03-06T11:56:21.237Z,48.10
2019-03-06T11:58:51.973Z,47.50
2019-03-06T12:01:24.392Z,47.70
2019-03-06T12:03:54.839Z,47.70
2019-03-06T12:06:24.854Z,48.40
2019-03-06T12:08:55.363Z,47.90
2019-03-06T12:11:26.494Z,48.20
2019-03-06T12:13:56.572Z,49.20
2019-03-06T12:16:27.159Z,48.10
2019-03-06T12:18:57.187Z,46.70
2019-03-06T12:21:28.095Z,48.00
2019-03-06T12:23:58.654Z,47.50
2019-03-06T12:26:28.862Z,47.70
2019-03-06T12:28:58.950Z,46.60
2019-03-06T12:31:29.219Z,46.80
2019-03-06T12:33:59.404Z,47.30
2019-03-06T12:36:29.102Z,45.90
2019-03-06T12:38:59.657Z,46.40
2019-03-06T12:41:30.985Z,45.40
2019-03-06T12:44:10.189Z,45.50
2019-03-06T12:46:33.750Z,45.20
2019-03-06T12:49:06.400Z,43.80
2019-03-06T12:51:37.693Z,43.60
2019-03-06T12:54:09.629Z,43.70
2019-03-06T12:56:40.383Z,43.00
2019-03-06T12:59:11.151Z,43.40
2019-03-06T13:01:41.498Z,44.30
2019-03-06T13:04:11.888Z,43.70
2019-03-06T13:06:42.290Z,42.80
2019-03-06T13:09:17.311Z,43.20
2019-03-06T13:11:47.703Z,42.70
2019-03-06T13:14:17.176Z,43.20
2019-03-06T13:16:47.866Z,43.40
2019-03-06T13:19:17.634Z,42.70
2019-03-06T13:21:47.396Z,44.20
2019-03-06T13:24:17.701Z,43.80
2019-03-06T13:26:47.778Z,44.70
2019-03-06T13:29:17.417Z,45.70
2019-03-06T13:31:48.201Z,44.70
2019-03-06T13:34:25.854Z,45.60
2019-03-06T13:36:56.416Z,45.20
2019-03-06T13:39:26.739Z,45.80
2019-03-06T13:41:57.310Z,46.10
2019-03-06T13:44:27.773Z,46.00
2019-03-06T13:46:58.689Z,45.90
2019-03-06T13:49:28.926Z,45.70
2019-03-06T13:51:58.836Z,45.60
2019-03-06T13:54:29.367Z,46.90
2019-03-06T13:56:59.506Z,45.70
2019-03-06T13:59:29.880Z,46.40
2019-03-06T14:01:59.647Z,46.50
2019-03-06T14:04:30.940Z,45.30
2019-03-06T14:07:01.092Z,45.00
2019-03-06T14:09:30.987Z,44.70
2019-03-06T14:12:00.673Z,45.00
2019-03-06T14:14:31.238Z,44.90
2019-03-06T14:17:01.074Z,44.10
2019-03-06T14:19:30.880Z,44.60
2019-03-06T14:22:01.570Z,44.20
2019-03-06T14:24:32.411Z,44.10
2019-03-06T14:27:31.267Z,44.00
2019-03-06T14:30:05.047Z,45.20
2019-03-06T14:32:35.820Z,45.90
2019-03-06T14:35:07.338Z,45.30
2019-03-06T14:37:38.439Z,46.00
2019-03-06T14:40:15.630Z,46.50
2019-03-06T14:42:45.880Z,46.50
2019-03-06T14:45:16.791Z,45.10
2019-03-06T14:47:47.359Z,46.80
2019-03-06T14:50:17.476Z,45.20
2019-03-06T14:52:47.943Z,45.10
2019-03-06T14:55:18.094Z,47.00
2019-03-06T14:57:48.229Z,46.70
2019-03-06T15:00:19.953Z,47.70
2019-03-06T15:02:50.375Z,47.60
2019-03-06T15:05:21.066Z,47.70
2019-03-06T15:07:52.206Z,47.30
2019-03-06T15:10:22.715Z,47.60
2019-03-06T15:12:52.728Z,48.40
2019-03-06T15:15:22.843Z,48.00
2019-03-06T15:17:52.862Z,47.00
2019-03-06T15:20:23.817Z,46.90
2019-03-06T15:22:53.941Z,48.30
2019-03-06T15:25:24.218Z,48.30
2019-03-06T15:27:55.144Z,48.50
2019-03-06T15:30:25.324Z,49.30
2019-03-06T15:32:55.017Z,49.10
2019-03-06T15:35:25.650Z,49.40
2019-03-06T15:37:56.073Z,49.30
2019-03-06T15:40:27.656Z,50.00
2019-03-06T15:42:57.724Z,51.10
2019-03-06T15:45:29.814Z,51.00
2019-03-06T15:48:00.404Z,51.80
2019-03-06T15:50:31.238Z,52.00
2019-03-06T15:53:00.980Z,52.80
2019-03-06T15:55:31.499Z,52.40
2019-03-06T15:58:02.050Z,52.90
2019-03-06T16:00:46.355Z,52.10
2019-03-06T16:03:11.528Z,52.50
2019-03-06T16:05:42.038Z,52.70
2019-03-06T16:08:13.274Z,52.20
2019-03-06T16:10:43.892Z,52.60
2019-03-06T16:13:14.126Z,53.30
2019-03-06T16:15:44.174Z,53.10
2019-03-06T16:18:14.370Z,53.50
2019-03-06T16:20:44.732Z,53.40
2019-03-06T16:23:15.959Z,54.50
2019-03-06T16:25:45.810Z,53.60
2019-03-06T16:28:16.789Z,53.40
2019-03-06T16:30:46.593Z,53.40
2019-03-06T16:33:17.631Z,53.80
2019-03-06T16:35:51.027Z,53.90
2019-03-06T16:38:21.256Z,53.70
2019-03-06T16:40:51.788Z,54.60
2019-03-06T16:43:22.645Z,55.30
2019-03-06T16:45:53.277Z,54.20
2019-03-06T16:48:23.887Z,54.60
2019-03-06T16:50:54.321Z,54.20
2019-03-06T16:53:24.397Z,54.90
2019-03-06T16:55:54.446Z,54.80
2019-03-06T16:58:24.285Z,54.60
2019-03-06T17:00:55.443Z,54.30
2019-03-06T17:03:24.989Z,54.10
2019-03-06T17:05:55.642Z,55.30
2019-03-06T17:08:26.067Z,55.70
2019-03-06T17:10:56.442Z,57.70
2019-03-06T17:13:26.942Z,58.50
2019-03-06T17:15:57.655Z,59.20
2019-03-06T17:18:27.374Z,57.20
2019-03-06T17:20:57.928Z,58.80
2019-03-06T17:23:28.059Z,59.50
2019-03-06T17:25:58.936Z,59.20
2019-03-06T17:28:28.933Z,58.40
2019-03-06T17:30:59.292Z,57.70
2019-03-06T17:33:30.116Z,57.80
2019-03-06T17:36:01.052Z,58.30
2019-03-06T17:38:31.130Z,58.90
2019-03-06T17:41:01.808Z,59.10
2019-03-06T17:43:32.595Z,59.70
2019-03-06T17:46:03.282Z,59.30
2019-03-06T17:48:33.115Z,60.00
2019-03-06T17:51:02.805Z,61.20
2019-03-06T17:53:33.283Z,60.30
2019-03-06T17:56:04.692Z,61.50
2019-03-06T17:58:35.620Z,60.30
2019-03-06T18:01:09.576Z,59.70
2019-03-06T18:03:51.357Z,59.70
2019-03-06T18:06:20.233Z,61.30
2019-03-06T18:08:50.828Z,62.30
2019-03-06T18:11:20.658Z,62.80
2019-03-06T18:13:50.888Z,63.20
2019-03-06T18:16:21.514Z,63.10
2019-03-06T18:18:52.159Z,62.20
2019-03-06T18:21:22.567Z,62.60
2019-03-06T18:23:52.172Z,63.30
2019-03-06T18:26:22.676Z,62.90
2019-03-06T18:28:52.448Z,61.80
2019-03-06T18:31:22.976Z,63.60
2019-03-06T18:33:53.767Z,61.30
2019-03-06T18:36:24.121Z,60.80
2019-03-06T18:38:54.354Z,62.60
2019-03-06T18:41:25.176Z,64.60
2019-03-06T18:43:55.298Z,66.10
2019-03-06T18:46:25.751Z,64.20
2019-03-06T18:48:56.274Z,62.70
2019-03-06T18:51:26.904Z,64.00
2019-03-06T18:53:56.696Z,63.30
2019-03-06T18:56:27.235Z,62.80
2019-03-06T18:58:59.003Z,62.60
2019-03-06T19:01:29.821Z,62.70
2019-03-06T19:03:59.931Z,60.10
2019-03-06T19:06:30.158Z,59.30
2019-03-06T19:09:00.871Z,58.90
2019-03-06T19:11:31.138Z,58.40
2019-03-06T19:14:01.801Z,58.60
2019-03-06T19:16:31.959Z,58.40
2019-03-06T19:19:02.408Z,58.50
2019-03-06T19:21:33.094Z,58.40
2019-03-06T19:24:03.675Z,58.40
2019-03-06T19:26:33.637Z,57.20
2019-03-06T19:29:05.474Z,59.80
2019-03-06T19:31:36.069Z,60.30
2019-03-06T19:34:06.079Z,57.50
2019-03-06T19:36:36.211Z,57.70
2019-03-06T19:39:07.644Z,58.30
2019-03-06T19:41:38.388Z,57.50
2019-03-06T19:44:08.511Z,58.50
2019-03-06T19:46:38.989Z,58.20
2019-03-06T19:49:09.519Z,57.90
2019-03-06T19:51:40.311Z,58.20
2019-03-06T19:54:10.117Z,58.10
2019-03-06T19:56:40.284Z,58.10
2019-03-06T19:59:10.374Z,57.50
2019-03-06T20:01:40.572Z,58.20
2019-03-06T20:04:10.891Z,57.40
2019-03-06T20:06:41.199Z,58.90
2019-03-06T20:09:26.182Z,59.50
2019-03-06T20:11:56.327Z,58.10
2019-03-06T20:14:26.427Z,59.40
2019-03-06T20:16:56.853Z,58.10
2019-03-06T20:19:28.682Z,58.40
2019-03-06T20:21:58.819Z,58.40
2019-03-06T20:24:28.858Z,58.60
2019-03-06T20:26:59.302Z,59.20
2019-03-06T20:29:29.900Z,59.00
2019-03-06T20:32:00.784Z,57.80
2019-03-06T20:34:31.687Z,57.70
2019-03-06T20:37:02.474Z,57.10
2019-03-06T20:39:32.741Z,56.70
2019-03-06T20:42:03.147Z,56.80
2019-03-06T20:44:33.713Z,56.00
2019-03-06T20:47:04.668Z,56.20
2019-03-06T20:49:35.133Z,55.80
2019-03-06T20:52:05.643Z,55.60
2019-03-06T20:54:36.153Z,56.50
2019-03-06T20:57:06.715Z,55.70
2019-03-06T20:59:36.864Z,54.90
2019-03-06T21:02:06.766Z,54.10
2019-03-06T21:04:37.192Z,53.40
2019-03-06T21:07:08.245Z,55.00
2019-03-06T21:09:39.051Z,54.30
2019-03-06T21:12:09.504Z,53.70
2019-03-06T21:14:39.810Z,54.40
2019-03-06T21:17:09.638Z,53.20
2019-03-06T21:19:40.563Z,53.20
2019-03-06T21:22:10.082Z,53.60
2019-03-06T21:24:40.318Z,54.20
2019-03-06T21:27:11.312Z,53.70
2019-03-06T21:29:42.136Z,53.70
2019-03-06T21:32:12.407Z,53.10
2019-03-06T21:34:42.228Z,53.30
2019-03-06T21:37:12.690Z,53.20
2019-03-06T21:39:42.457Z,53.50
2019-03-06T21:42:12.776Z,52.70
2019-03-06T21:44:43.837Z,51.60
2019-03-06T21:47:14.448Z,52.60
2019-03-06T21:49:44.697Z,51.90
2019-03-06T21:52:14.500Z,53.40
2019-03-06T21:54:44.857Z,52.80
2019-03-06T21:57:15.728Z,53.20
2019-03-06T21:59:45.898Z,53.10
2019-03-06T22:02:16.746Z,52.20
2019-03-06T22:04:46.825Z,53.50
2019-03-06T22:07:17.333Z,54.10
2019-03-06T22:09:47.771Z,55.20
2019-03-06T22:12:18.358Z,53.80
2019-03-06T22:14:48.443Z,53.60
2019-03-06T22:17:19.187Z,53.80
2019-03-06T22:19:49.167Z,53.40
2019-03-06T22:22:19.319Z,53.00
2019-03-06T22:24:50.056Z,53.60
2019-03-06T22:27:20.817Z,52.80
2019-03-06T22:29:50.783Z,52.80
2019-03-06T22:32:21.218Z,52.80
2019-03-06T22:34:52.202Z,53.00
2019-03-06T22:37:22.010Z,53.00
2019-03-06T22:39:52.495Z,52.80
2019-03-06T22:42:22.511Z,52.40
2019-03-06T22:44:52.811Z,51.00
2019-03-06T22:47:23.548Z,52.70
2019-03-06T22:49:53.258Z,53.10
2019-03-06T22:52:24.073Z,53.20
2019-03-06T22:54:54.583Z,55.60
2019-03-06T22:57:25.018Z,56.00
2019-03-06T22:59:55.447Z,57.80
2019-03-06T23:02:26.824Z,58.40
2019-03-06T23:04:57.437Z,57.90
2019-03-06T23:07:26.853Z,59.70
2019-03-06T23:09:56.921Z,60.60
2019-03-06T23:12:27.027Z,62.70
2019-03-06T23:14:57.034Z,62.70
2019-03-06T23:17:27.807Z,64.80
2019-03-06T23:19:57.494Z,64.50
2019-03-06T23:22:27.612Z,65.80
2019-03-06T23:24:57.659Z,65.30
2019-03-06T23:27:27.835Z,65.40
2019-03-06T23:29:57.527Z,66.20
2019-03-06T23:32:27.915Z,67.00
2019-03-06T23:34:58.224Z,68.00
2019-03-06T23:37:29.015Z,69.30
2019-03-06T23:39:59.127Z,66.40
2019-03-06T23:42:29.653Z,63.00
2019-03-06T23:45:00.403Z,61.40
2019-03-06T23:47:30.520Z,61.20
2019-03-06T23:50:01.376Z,61.40
2019-03-06T23:52:35.857Z,60.70
2019-03-06T23:55:06.624Z,60.70
2019-03-06T23:57:37.422Z,59.80
